sensor_id;sensor_type;location;lat;lon;timestamp;P1;durP1;ratioP1;P2;durP2;ratioP2
59504;SDS011;45321;53.200;5.814;2022-08-19T00:01:42;7.85;;;6.20;;
59504;SDS011;45321;53.200;5.814;2022-08-19T00:04:11;12.27;;;6.50;;
59504;SDS011;45321;53.200;5.814;2022-08-19T00:06:39;9.75;;;6.43;;
59504;SDS011;45321;53.200;5.814;2022-08-19T00:09:08;9.30;;;6.57;;
59504;SDS011;45321;53.200;5.814;2022-08-19T00:11:35;9.82;;;7.15;;
59504;SDS011;45321;53.200;5.814;2022-08-19T00:14:03;9.52;;;6.72;;
59504;SDS011;45321;53.200;5.814;2022-08-19T00:16:31;10.10;;;7.07;;
59504;SDS011;45321;53.200;5.814;2022-08-19T00:18:57;10.35;;;6.55;;
59504;SDS011;45321;53.200;5.814;2022-08-19T00:21:24;12.05;;;6.97;;
59504;SDS011;45321;53.200;5.814;2022-08-19T00:23:52;10.60;;;7.53;;
59504;SDS011;45321;53.200;5.814;2022-08-19T00:26:18;11.68;;;6.82;;
59504;SDS011;45321;53.200;5.814;2022-08-19T00:28:44;11.77;;;7.40;;
59504;SDS011;45321;53.200;5.814;2022-08-19T00:31:10;8.73;;;6.93;;
59504;SDS011;45321;53.200;5.814;2022-08-19T00:33:36;10.02;;;7.60;;
59504;SDS011;45321;53.200;5.814;2022-08-19T00:36:03;8.48;;;6.88;;
59504;SDS011;45321;53.200;5.814;2022-08-19T00:38:31;8.60;;;7.25;;
59504;SDS011;45321;53.200;5.814;2022-08-19T00:40:58;9.57;;;7.32;;
59504;SDS011;45321;53.200;5.814;2022-08-19T00:43:24;8.23;;;7.45;;
59504;SDS011;45321;53.200;5.814;2022-08-19T00:45:52;8.93;;;7.25;;
59504;SDS011;45321;53.200;5.814;2022-08-19T00:48:18;9.45;;;7.20;;
59504;SDS011;45321;53.200;5.814;2022-08-19T00:50:46;8.98;;;7.53;;
59504;SDS011;45321;53.200;5.814;2022-08-19T00:53:15;9.20;;;7.45;;
59504;SDS011;45321;53.200;5.814;2022-08-19T00:55:45;9.43;;;7.93;;
59504;SDS011;45321;53.200;5.814;2022-08-19T00:58:13;10.57;;;7.60;;
59504;SDS011;45321;53.200;5.814;2022-08-19T01:00:42;10.60;;;7.60;;
59504;SDS011;45321;53.200;5.814;2022-08-19T01:03:09;10.52;;;8.30;;
59504;SDS011;45321;53.200;5.814;2022-08-19T01:05:37;10.68;;;8.40;;
59504;SDS011;45321;53.200;5.814;2022-08-19T01:08:06;12.45;;;7.80;;
59504;SDS011;45321;53.200;5.814;2022-08-19T01:10:37;10.77;;;7.70;;
59504;SDS011;45321;53.200;5.814;2022-08-19T01:13:06;13.40;;;8.32;;
59504;SDS011;45321;53.200;5.814;2022-08-19T01:15:35;10.65;;;7.97;;
59504;SDS011;45321;53.200;5.814;2022-08-19T01:18:11;9.93;;;8.27;;
59504;SDS011;45321;53.200;5.814;2022-08-19T01:20:39;9.02;;;8.15;;
59504;SDS011;45321;53.200;5.814;2022-08-19T01:23:06;8.05;;;7.25;;
59504;SDS011;45321;53.200;5.814;2022-08-19T01:25:34;8.80;;;7.90;;
59504;SDS011;45321;53.200;5.814;2022-08-19T01:28:14;9.75;;;7.90;;
59504;SDS011;45321;53.200;5.814;2022-08-19T01:30:45;8.70;;;7.72;;
59504;SDS011;45321;53.200;5.814;2022-08-19T01:33:11;9.68;;;7.38;;
59504;SDS011;45321;53.200;5.814;2022-08-19T01:35:37;8.63;;;7.57;;
59504;SDS011;45321;53.200;5.814;2022-08-19T01:38:04;11.57;;;8.07;;
59504;SDS011;45321;53.200;5.814;2022-08-19T01:40:34;8.85;;;7.22;;
59504;SDS011;45321;53.200;5.814;2022-08-19T01:43:03;14.63;;;8.27;;
59504;SDS011;45321;53.200;5.814;2022-08-19T01:45:30;9.35;;;7.20;;
59504;SDS011;45321;53.200;5.814;2022-08-19T01:47:57;12.70;;;8.25;;
59504;SDS011;45321;53.200;5.814;2022-08-19T01:50:25;9.88;;;7.28;;
59504;SDS011;45321;53.200;5.814;2022-08-19T01:52:51;8.85;;;7.47;;
59504;SDS011;45321;53.200;5.814;2022-08-19T01:55:18;9.77;;;7.30;;
59504;SDS011;45321;53.200;5.814;2022-08-19T01:57:50;9.43;;;8.48;;
59504;SDS011;45321;53.200;5.814;2022-08-19T02:00:22;10.10;;;8.68;;
59504;SDS011;45321;53.200;5.814;2022-08-19T02:02:50;9.70;;;8.43;;
59504;SDS011;45321;53.200;5.814;2022-08-19T02:05:15;12.57;;;9.50;;
59504;SDS011;45321;53.200;5.814;2022-08-19T02:07:43;11.30;;;9.13;;
59504;SDS011;45321;53.200;5.814;2022-08-19T02:10:14;11.35;;;9.15;;
59504;SDS011;45321;53.200;5.814;2022-08-19T02:12:42;9.68;;;8.68;;
59504;SDS011;45321;53.200;5.814;2022-08-19T02:15:08;12.93;;;9.13;;
59504;SDS011;45321;53.200;5.814;2022-08-19T02:17:34;10.05;;;8.95;;
59504;SDS011;45321;53.200;5.814;2022-08-19T02:20:04;11.88;;;9.07;;
59504;SDS011;45321;53.200;5.814;2022-08-19T02:22:31;9.75;;;8.52;;
59504;SDS011;45321;53.200;5.814;2022-08-19T02:24:58;9.10;;;8.20;;
59504;SDS011;45321;53.200;5.814;2022-08-19T02:27:23;10.13;;;9.05;;
59504;SDS011;45321;53.200;5.814;2022-08-19T02:29:53;11.48;;;9.18;;
59504;SDS011;45321;53.200;5.814;2022-08-19T02:32:19;11.15;;;9.13;;
59504;SDS011;45321;53.200;5.814;2022-08-19T02:34:45;11.27;;;9.55;;
59504;SDS011;45321;53.200;5.814;2022-08-19T02:37:11;13.55;;;9.80;;
59504;SDS011;45321;53.200;5.814;2022-08-19T02:42:22;13.25;;;9.07;;
59504;SDS011;45321;53.200;5.814;2022-08-19T02:44:48;13.38;;;9.80;;
59504;SDS011;45321;53.200;5.814;2022-08-19T02:47:14;11.10;;;9.20;;
59504;SDS011;45321;53.200;5.814;2022-08-19T02:49:40;11.27;;;9.82;;
59504;SDS011;45321;53.200;5.814;2022-08-19T02:52:06;10.85;;;9.73;;
59504;SDS011;45321;53.200;5.814;2022-08-19T02:54:32;11.43;;;10.23;;
59504;SDS011;45321;53.200;5.814;2022-08-19T02:56:58;11.68;;;9.63;;
59504;SDS011;45321;53.200;5.814;2022-08-19T02:59:24;14.15;;;10.35;;
59504;SDS011;45321;53.200;5.814;2022-08-19T03:01:51;15.15;;;10.73;;
59504;SDS011;45321;53.200;5.814;2022-08-19T03:04:17;12.70;;;10.73;;
59504;SDS011;45321;53.200;5.814;2022-08-19T03:06:44;12.25;;;10.65;;
59504;SDS011;45321;53.200;5.814;2022-08-19T03:09:11;12.93;;;10.93;;
59504;SDS011;45321;53.200;5.814;2022-08-19T03:11:38;11.95;;;10.50;;
59504;SDS011;45321;53.200;5.814;2022-08-19T03:14:05;12.38;;;10.50;;
59504;SDS011;45321;53.200;5.814;2022-08-19T03:16:32;14.70;;;10.75;;
59504;SDS011;45321;53.200;5.814;2022-08-19T03:19:00;12.50;;;11.00;;
59504;SDS011;45321;53.200;5.814;2022-08-19T03:21:27;11.65;;;10.52;;
59504;SDS011;45321;53.200;5.814;2022-08-19T03:23:55;12.48;;;10.35;;
59504;SDS011;45321;53.200;5.814;2022-08-19T03:26:21;13.77;;;11.00;;
59504;SDS011;45321;53.200;5.814;2022-08-19T03:28:47;14.27;;;11.20;;
59504;SDS011;45321;53.200;5.814;2022-08-19T03:31:15;12.57;;;9.73;;
59504;SDS011;45321;53.200;5.814;2022-08-19T03:33:46;13.73;;;10.15;;
59504;SDS011;45321;53.200;5.814;2022-08-19T03:36:13;12.73;;;10.35;;
59504;SDS011;45321;53.200;5.814;2022-08-19T03:38:42;11.43;;;9.85;;
59504;SDS011;45321;53.200;5.814;2022-08-19T03:41:13;11.43;;;10.27;;
59504;SDS011;45321;53.200;5.814;2022-08-19T03:43:41;11.35;;;10.10;;
59504;SDS011;45321;53.200;5.814;2022-08-19T03:46:09;10.65;;;9.57;;
59504;SDS011;45321;53.200;5.814;2022-08-19T03:48:38;11.85;;;9.80;;
59504;SDS011;45321;53.200;5.814;2022-08-19T03:51:05;10.98;;;9.85;;
59504;SDS011;45321;53.200;5.814;2022-08-19T03:53:32;13.50;;;9.80;;
59504;SDS011;45321;53.200;5.814;2022-08-19T03:56:00;11.57;;;9.52;;
59504;SDS011;45321;53.200;5.814;2022-08-19T03:58:27;12.05;;;10.50;;
59504;SDS011;45321;53.200;5.814;2022-08-19T04:00:55;14.07;;;11.73;;
59504;SDS011;45321;53.200;5.814;2022-08-19T04:03:22;12.10;;;10.82;;
59504;SDS011;45321;53.200;5.814;2022-08-19T04:05:49;12.27;;;10.55;;
59504;SDS011;45321;53.200;5.814;2022-08-19T04:08:15;12.10;;;10.25;;
59504;SDS011;45321;53.200;5.814;2022-08-19T04:10:43;12.93;;;10.90;;
59504;SDS011;45321;53.200;5.814;2022-08-19T04:13:09;11.82;;;10.27;;
59504;SDS011;45321;53.200;5.814;2022-08-19T04:15:38;13.23;;;10.48;;
59504;SDS011;45321;53.200;5.814;2022-08-19T04:18:07;12.43;;;10.20;;
59504;SDS011;45321;53.200;5.814;2022-08-19T04:20:54;13.13;;;10.68;;
59504;SDS011;45321;53.200;5.814;2022-08-19T04:23:19;15.60;;;11.43;;
59504;SDS011;45321;53.200;5.814;2022-08-19T04:25:45;14.45;;;10.27;;
59504;SDS011;45321;53.200;5.814;2022-08-19T04:28:11;15.32;;;11.68;;
59504;SDS011;45321;53.200;5.814;2022-08-19T04:30:45;12.95;;;11.60;;
59504;SDS011;45321;53.200;5.814;2022-08-19T04:33:14;15.40;;;11.38;;
59504;SDS011;45321;53.200;5.814;2022-08-19T04:35:43;12.63;;;11.43;;
59504;SDS011;45321;53.200;5.814;2022-08-19T04:38:13;14.73;;;13.05;;
59504;SDS011;45321;53.200;5.814;2022-08-19T04:40:41;16.13;;;13.25;;
59504;SDS011;45321;53.200;5.814;2022-08-19T04:43:27;13.35;;;11.95;;
59504;SDS011;45321;53.200;5.814;2022-08-19T04:45:53;15.45;;;13.38;;
59504;SDS011;45321;53.200;5.814;2022-08-19T04:48:19;14.70;;;12.70;;
59504;SDS011;45321;53.200;5.814;2022-08-19T04:50:50;13.20;;;11.82;;
59504;SDS011;45321;53.200;5.814;2022-08-19T04:53:22;14.57;;;12.82;;
59504;SDS011;45321;53.200;5.814;2022-08-19T04:55:54;16.05;;;13.25;;
59504;SDS011;45321;53.200;5.814;2022-08-19T04:58:21;14.32;;;12.55;;
59504;SDS011;45321;53.200;5.814;2022-08-19T05:00:48;23.25;;;13.18;;
59504;SDS011;45321;53.200;5.814;2022-08-19T05:03:14;16.85;;;13.43;;
59504;SDS011;45321;53.200;5.814;2022-08-19T05:05:42;14.18;;;12.68;;
59504;SDS011;45321;53.200;5.814;2022-08-19T05:08:10;14.75;;;13.15;;
59504;SDS011;45321;53.200;5.814;2022-08-19T05:10:37;14.15;;;11.95;;
59504;SDS011;45321;53.200;5.814;2022-08-19T05:13:04;15.05;;;12.85;;
59504;SDS011;45321;53.200;5.814;2022-08-19T05:15:30;13.68;;;12.27;;
59504;SDS011;45321;53.200;5.814;2022-08-19T05:17:56;14.45;;;11.75;;
59504;SDS011;45321;53.200;5.814;2022-08-19T05:20:41;15.63;;;12.70;;
59504;SDS011;45321;53.200;5.814;2022-08-19T05:23:25;16.83;;;13.20;;
59504;SDS011;45321;53.200;5.814;2022-08-19T05:25:51;14.80;;;12.98;;
59504;SDS011;45321;53.200;5.814;2022-08-19T05:28:18;17.90;;;13.02;;
59504;SDS011;45321;53.200;5.814;2022-08-19T05:30:45;15.25;;;13.50;;
59504;SDS011;45321;53.200;5.814;2022-08-19T05:33:11;15.32;;;13.73;;
59504;SDS011;45321;53.200;5.814;2022-08-19T05:35:40;15.02;;;13.30;;
59504;SDS011;45321;53.200;5.814;2022-08-19T05:38:06;16.63;;;14.93;;
59504;SDS011;45321;53.200;5.814;2022-08-19T05:40:37;16.45;;;14.55;;
59504;SDS011;45321;53.200;5.814;2022-08-19T05:43:04;16.52;;;14.25;;
59504;SDS011;45321;53.200;5.814;2022-08-19T05:45:30;20.88;;;15.18;;
59504;SDS011;45321;53.200;5.814;2022-08-19T05:47:57;17.88;;;13.77;;
59504;SDS011;45321;53.200;5.814;2022-08-19T05:50:23;17.88;;;15.82;;
59504;SDS011;45321;53.200;5.814;2022-08-19T05:52:51;17.52;;;15.73;;
59504;SDS011;45321;53.200;5.814;2022-08-19T05:55:17;21.88;;;16.17;;
59504;SDS011;45321;53.200;5.814;2022-08-19T05:57:45;20.45;;;16.52;;
59504;SDS011;45321;53.200;5.814;2022-08-19T06:00:12;18.48;;;16.30;;
59504;SDS011;45321;53.200;5.814;2022-08-19T06:02:38;19.65;;;16.45;;
59504;SDS011;45321;53.200;5.814;2022-08-19T06:05:05;17.95;;;15.82;;
59504;SDS011;45321;53.200;5.814;2022-08-19T06:07:33;17.60;;;14.77;;
59504;SDS011;45321;53.200;5.814;2022-08-19T06:10:07;17.20;;;14.90;;
59504;SDS011;45321;53.200;5.814;2022-08-19T06:12:35;17.67;;;15.80;;
59504;SDS011;45321;53.200;5.814;2022-08-19T06:15:03;18.80;;;16.48;;
59504;SDS011;45321;53.200;5.814;2022-08-19T06:17:32;18.83;;;16.08;;
59504;SDS011;45321;53.200;5.814;2022-08-19T06:19:59;19.95;;;16.45;;
59504;SDS011;45321;53.200;5.814;2022-08-19T06:22:27;18.55;;;16.38;;
59504;SDS011;45321;53.200;5.814;2022-08-19T06:24:53;18.13;;;15.27;;
59504;SDS011;45321;53.200;5.814;2022-08-19T06:27:19;21.50;;;16.73;;
59504;SDS011;45321;53.200;5.814;2022-08-19T06:29:46;17.85;;;15.32;;
59504;SDS011;45321;53.200;5.814;2022-08-19T06:32:13;18.05;;;16.25;;
59504;SDS011;45321;53.200;5.814;2022-08-19T06:34:41;18.75;;;16.27;;
59504;SDS011;45321;53.200;5.814;2022-08-19T06:37:07;17.95;;;16.13;;
59504;SDS011;45321;53.200;5.814;2022-08-19T06:39:34;21.38;;;16.52;;
59504;SDS011;45321;53.200;5.814;2022-08-19T06:42:03;17.27;;;15.57;;
59504;SDS011;45321;53.200;5.814;2022-08-19T06:44:33;20.02;;;16.45;;
59504;SDS011;45321;53.200;5.814;2022-08-19T06:47:05;18.50;;;15.95;;
59504;SDS011;45321;53.200;5.814;2022-08-19T06:49:32;17.00;;;15.30;;
59504;SDS011;45321;53.200;5.814;2022-08-19T06:51:59;18.33;;;16.35;;
59504;SDS011;45321;53.200;5.814;2022-08-19T06:54:25;17.48;;;15.68;;
59504;SDS011;45321;53.200;5.814;2022-08-19T06:56:53;19.33;;;17.30;;
59504;SDS011;45321;53.200;5.814;2022-08-19T06:59:20;26.30;;;17.17;;
59504;SDS011;45321;53.200;5.814;2022-08-19T07:01:52;19.52;;;17.42;;
59504;SDS011;45321;53.200;5.814;2022-08-19T07:04:21;20.05;;;17.30;;
59504;SDS011;45321;53.200;5.814;2022-08-19T07:06:50;16.90;;;15.10;;
59504;SDS011;45321;53.200;5.814;2022-08-19T07:09:21;22.10;;;18.30;;
59504;SDS011;45321;53.200;5.814;2022-08-19T07:11:48;19.58;;;17.50;;
59504;SDS011;45321;53.200;5.814;2022-08-19T07:14:18;19.35;;;17.38;;
59504;SDS011;45321;53.200;5.814;2022-08-19T07:16:49;18.55;;;15.82;;
59504;SDS011;45321;53.200;5.814;2022-08-19T07:19:17;22.73;;;18.60;;
59504;SDS011;45321;53.200;5.814;2022-08-19T07:21:43;19.83;;;17.73;;
59504;SDS011;45321;53.200;5.814;2022-08-19T07:24:09;20.33;;;17.60;;
59504;SDS011;45321;53.200;5.814;2022-08-19T07:26:39;18.48;;;16.67;;
59504;SDS011;45321;53.200;5.814;2022-08-19T07:29:06;20.58;;;18.38;;
59504;SDS011;45321;53.200;5.814;2022-08-19T07:31:32;20.00;;;17.90;;
59504;SDS011;45321;53.200;5.814;2022-08-19T07:34:03;21.67;;;19.40;;
59504;SDS011;45321;53.200;5.814;2022-08-19T07:36:34;22.33;;;19.05;;
59504;SDS011;45321;53.200;5.814;2022-08-19T07:39:03;21.30;;;19.08;;
59504;SDS011;45321;53.200;5.814;2022-08-19T07:41:30;21.88;;;19.55;;
59504;SDS011;45321;53.200;5.814;2022-08-19T07:43:57;23.30;;;20.77;;
59504;SDS011;45321;53.200;5.814;2022-08-19T07:46:28;23.00;;;20.58;;
59504;SDS011;45321;53.200;5.814;2022-08-19T07:48:58;23.10;;;20.70;;
59504;SDS011;45321;53.200;5.814;2022-08-19T07:51:25;22.25;;;19.88;;
59504;SDS011;45321;53.200;5.814;2022-08-19T07:53:52;24.70;;;21.00;;
59504;SDS011;45321;53.200;5.814;2022-08-19T07:56:19;21.60;;;19.10;;
59504;SDS011;45321;53.200;5.814;2022-08-19T07:58:48;25.23;;;22.40;;
59504;SDS011;45321;53.200;5.814;2022-08-19T08:01:19;24.38;;;21.92;;
59504;SDS011;45321;53.200;5.814;2022-08-19T08:03:48;23.77;;;21.30;;
59504;SDS011;45321;53.200;5.814;2022-08-19T08:06:33;26.20;;;23.30;;
59504;SDS011;45321;53.200;5.814;2022-08-19T08:09:21;28.27;;;24.90;;
59504;SDS011;45321;53.200;5.814;2022-08-19T08:14:29;28.63;;;24.17;;
59504;SDS011;45321;53.200;5.814;2022-08-19T08:17:04;26.88;;;23.88;;
59504;SDS011;45321;53.200;5.814;2022-08-19T08:19:31;28.67;;;25.50;;
59504;SDS011;45321;53.200;5.814;2022-08-19T08:21:58;31.13;;;26.75;;
59504;SDS011;45321;53.200;5.814;2022-08-19T08:24:30;33.88;;;29.63;;
59504;SDS011;45321;53.200;5.814;2022-08-19T08:26:56;32.28;;;28.45;;
59504;SDS011;45321;53.200;5.814;2022-08-19T08:29:27;34.13;;;29.20;;
59504;SDS011;45321;53.200;5.814;2022-08-19T08:31:57;31.90;;;28.58;;
59504;SDS011;45321;53.200;5.814;2022-08-19T08:34:23;31.38;;;27.25;;
59504;SDS011;45321;53.200;5.814;2022-08-19T08:36:48;31.20;;;27.58;;
59504;SDS011;45321;53.200;5.814;2022-08-19T08:39:17;31.20;;;27.80;;
59504;SDS011;45321;53.200;5.814;2022-08-19T08:42:05;29.80;;;26.52;;
59504;SDS011;45321;53.200;5.814;2022-08-19T08:47:17;30.85;;;25.75;;
59504;SDS011;45321;53.200;5.814;2022-08-19T08:52:22;30.50;;;26.88;;
59504;SDS011;45321;53.200;5.814;2022-08-19T08:54:50;30.92;;;27.40;;
59504;SDS011;45321;53.200;5.814;2022-08-19T08:57:21;32.50;;;26.45;;
59504;SDS011;45321;53.200;5.814;2022-08-19T09:00:10;27.15;;;24.25;;
59504;SDS011;45321;53.200;5.814;2022-08-19T09:02:42;26.33;;;21.15;;
59504;SDS011;45321;53.200;5.814;2022-08-19T09:05:08;28.25;;;24.17;;
59504;SDS011;45321;53.200;5.814;2022-08-19T09:07:46;30.77;;;24.27;;
59504;SDS011;45321;53.200;5.814;2022-08-19T09:13:24;22.98;;;19.27;;
59504;SDS011;45321;53.200;5.814;2022-08-19T09:16:05;24.55;;;20.88;;
59504;SDS011;45321;53.200;5.814;2022-08-19T09:18:39;24.58;;;20.65;;
59504;SDS011;45321;53.200;5.814;2022-08-19T09:21:15;21.80;;;18.55;;
59504;SDS011;45321;53.200;5.814;2022-08-19T09:23:41;24.67;;;19.58;;
59504;SDS011;45321;53.200;5.814;2022-08-19T09:26:12;26.40;;;19.50;;
59504;SDS011;45321;53.200;5.814;2022-08-19T09:28:44;18.67;;;14.82;;
59504;SDS011;45321;53.200;5.814;2022-08-19T09:31:11;21.73;;;16.80;;
59504;SDS011;45321;53.200;5.814;2022-08-19T09:33:45;20.37;;;15.80;;
59504;SDS011;45321;53.200;5.814;2022-08-19T09:36:14;20.23;;;15.05;;
59504;SDS011;45321;53.200;5.814;2022-08-19T09:38:45;17.23;;;13.68;;
59504;SDS011;45321;53.200;5.814;2022-08-19T09:41:12;18.85;;;14.32;;
59504;SDS011;45321;53.200;5.814;2022-08-19T09:43:46;21.98;;;15.77;;
59504;SDS011;45321;53.200;5.814;2022-08-19T09:46:17;21.67;;;15.63;;
59504;SDS011;45321;53.200;5.814;2022-08-19T09:48:46;21.17;;;15.65;;
59504;SDS011;45321;53.200;5.814;2022-08-19T09:51:14;17.52;;;14.63;;
59504;SDS011;45321;53.200;5.814;2022-08-19T09:53:43;23.25;;;16.20;;
59504;SDS011;45321;53.200;5.814;2022-08-19T09:56:10;21.52;;;14.50;;
59504;SDS011;45321;53.200;5.814;2022-08-19T09:58:37;16.08;;;14.35;;
59504;SDS011;45321;53.200;5.814;2022-08-19T10:01:03;15.77;;;12.63;;
59504;SDS011;45321;53.200;5.814;2022-08-19T10:03:31;17.30;;;14.38;;
59504;SDS011;45321;53.200;5.814;2022-08-19T10:06:00;19.05;;;14.65;;
59504;SDS011;45321;53.200;5.814;2022-08-19T10:08:36;22.83;;;15.40;;
59504;SDS011;45321;53.200;5.814;2022-08-19T10:11:04;19.15;;;12.43;;
59504;SDS011;45321;53.200;5.814;2022-08-19T10:13:31;18.88;;;12.50;;
59504;SDS011;45321;53.200;5.814;2022-08-19T10:16:05;20.67;;;14.65;;
59504;SDS011;45321;53.200;5.814;2022-08-19T10:18:36;20.02;;;14.23;;
59504;SDS011;45321;53.200;5.814;2022-08-19T10:21:21;21.75;;;14.98;;
59504;SDS011;45321;53.200;5.814;2022-08-19T10:23:50;20.58;;;15.15;;
59504;SDS011;45321;53.200;5.814;2022-08-19T10:26:18;23.38;;;15.95;;
59504;SDS011;45321;53.200;5.814;2022-08-19T10:28:46;23.55;;;16.77;;
59504;SDS011;45321;53.200;5.814;2022-08-19T10:31:16;17.95;;;13.27;;
59504;SDS011;45321;53.200;5.814;2022-08-19T10:33:45;18.75;;;12.68;;
59504;SDS011;45321;53.200;5.814;2022-08-19T10:36:20;15.10;;;11.55;;
59504;SDS011;45321;53.200;5.814;2022-08-19T10:38:49;18.92;;;10.32;;
59504;SDS011;45321;53.200;5.814;2022-08-19T10:41:20;15.00;;;11.15;;
59504;SDS011;45321;53.200;5.814;2022-08-19T10:43:53;16.15;;;9.90;;
59504;SDS011;45321;53.200;5.814;2022-08-19T10:46:21;15.43;;;10.77;;
59504;SDS011;45321;53.200;5.814;2022-08-19T10:48:48;15.88;;;11.20;;
59504;SDS011;45321;53.200;5.814;2022-08-19T10:51:15;17.38;;;10.75;;
59504;SDS011;45321;53.200;5.814;2022-08-19T10:56:26;17.58;;;11.00;;
59504;SDS011;45321;53.200;5.814;2022-08-19T10:59:11;15.88;;;11.00;;
59504;SDS011;45321;53.200;5.814;2022-08-19T11:01:40;19.60;;;11.27;;
59504;SDS011;45321;53.200;5.814;2022-08-19T11:04:07;16.38;;;11.60;;
59504;SDS011;45321;53.200;5.814;2022-08-19T11:06:36;19.73;;;11.60;;
59504;SDS011;45321;53.200;5.814;2022-08-19T11:09:03;16.70;;;10.98;;
59504;SDS011;45321;53.200;5.814;2022-08-19T11:11:30;12.95;;;10.80;;
59504;SDS011;45321;53.200;5.814;2022-08-19T11:13:57;13.45;;;9.80;;
59504;SDS011;45321;53.200;5.814;2022-08-19T11:16:24;15.30;;;10.82;;
59504;SDS011;45321;53.200;5.814;2022-08-19T11:18:56;13.43;;;10.13;;
59504;SDS011;45321;53.200;5.814;2022-08-19T11:21:31;12.80;;;10.40;;
59504;SDS011;45321;53.200;5.814;2022-08-19T11:24:01;13.40;;;8.13;;
59504;SDS011;45321;53.200;5.814;2022-08-19T11:26:29;14.77;;;8.20;;
59504;SDS011;45321;53.200;5.814;2022-08-19T11:28:56;11.20;;;8.15;;
59504;SDS011;45321;53.200;5.814;2022-08-19T11:31:24;9.98;;;7.80;;
59504;SDS011;45321;53.200;5.814;2022-08-19T11:33:51;13.07;;;7.50;;
59504;SDS011;45321;53.200;5.814;2022-08-19T11:36:19;12.45;;;8.93;;
59504;SDS011;45321;53.200;5.814;2022-08-19T11:38:46;13.13;;;9.15;;
59504;SDS011;45321;53.200;5.814;2022-08-19T11:41:14;11.63;;;7.50;;
59504;SDS011;45321;53.200;5.814;2022-08-19T11:43:41;10.20;;;7.60;;
59504;SDS011;45321;53.200;5.814;2022-08-19T11:46:08;12.27;;;9.38;;
59504;SDS011;45321;53.200;5.814;2022-08-19T11:48:37;8.43;;;7.53;;
59504;SDS011;45321;53.200;5.814;2022-08-19T11:51:07;14.15;;;7.95;;
59504;SDS011;45321;53.200;5.814;2022-08-19T11:53:40;13.00;;;8.30;;
59504;SDS011;45321;53.200;5.814;2022-08-19T11:56:07;14.00;;;8.80;;
59504;SDS011;45321;53.200;5.814;2022-08-19T11:58:34;8.38;;;6.03;;
59504;SDS011;45321;53.200;5.814;2022-08-19T12:01:01;18.25;;;10.98;;
59504;SDS011;45321;53.200;5.814;2022-08-19T12:03:30;14.27;;;8.70;;
59504;SDS011;45321;53.200;5.814;2022-08-19T12:05:55;9.35;;;7.60;;
59504;SDS011;45321;53.200;5.814;2022-08-19T12:08:22;8.75;;;6.60;;
59504;SDS011;45321;53.200;5.814;2022-08-19T12:10:47;13.23;;;7.00;;
59504;SDS011;45321;53.200;5.814;2022-08-19T12:13:13;9.82;;;5.25;;
59504;SDS011;45321;53.200;5.814;2022-08-19T12:15:46;9.93;;;6.80;;
59504;SDS011;45321;53.200;5.814;2022-08-19T12:18:12;9.35;;;7.18;;
59504;SDS011;45321;53.200;5.814;2022-08-19T12:20:42;8.23;;;6.65;;
59504;SDS011;45321;53.200;5.814;2022-08-19T12:23:12;7.55;;;5.70;;
59504;SDS011;45321;53.200;5.814;2022-08-19T12:25:43;9.48;;;5.18;;
59504;SDS011;45321;53.200;5.814;2022-08-19T12:28:17;10.48;;;5.20;;
59504;SDS011;45321;53.200;5.814;2022-08-19T12:30:48;9.48;;;5.90;;
59504;SDS011;45321;53.200;5.814;2022-08-19T12:33:16;11.00;;;6.40;;
59504;SDS011;45321;53.200;5.814;2022-08-19T12:35:43;13.90;;;6.93;;
59504;SDS011;45321;53.200;5.814;2022-08-19T12:38:12;10.57;;;8.20;;
59504;SDS011;45321;53.200;5.814;2022-08-19T12:40:39;11.18;;;8.48;;
59504;SDS011;45321;53.200;5.814;2022-08-19T12:43:06;13.13;;;8.18;;
59504;SDS011;45321;53.200;5.814;2022-08-19T12:45:32;10.98;;;8.63;;
59504;SDS011;45321;53.200;5.814;2022-08-19T12:47:58;14.45;;;9.05;;
59504;SDS011;45321;53.200;5.814;2022-08-19T12:50:24;9.38;;;7.72;;
59504;SDS011;45321;53.200;5.814;2022-08-19T12:52:50;12.43;;;9.25;;
59504;SDS011;45321;53.200;5.814;2022-08-19T12:55:15;10.57;;;8.00;;
59504;SDS011;45321;53.200;5.814;2022-08-19T12:57:43;11.82;;;8.57;;
59504;SDS011;45321;53.200;5.814;2022-08-19T13:00:10;14.27;;;10.13;;
59504;SDS011;45321;53.200;5.814;2022-08-19T13:02:39;12.23;;;8.98;;
59504;SDS011;45321;53.200;5.814;2022-08-19T13:05:07;9.82;;;7.40;;
59504;SDS011;45321;53.200;5.814;2022-08-19T13:07:36;12.13;;;7.78;;
59504;SDS011;45321;53.200;5.814;2022-08-19T13:10:04;13.85;;;8.60;;
59504;SDS011;45321;53.200;5.814;2022-08-19T13:12:34;13.40;;;8.98;;
59504;SDS011;45321;53.200;5.814;2022-08-19T13:15:00;12.38;;;8.27;;
59504;SDS011;45321;53.200;5.814;2022-08-19T13:17:26;10.45;;;8.20;;
59504;SDS011;45321;53.200;5.814;2022-08-19T13:19:52;12.75;;;8.75;;
59504;SDS011;45321;53.200;5.814;2022-08-19T13:22:18;10.07;;;7.78;;
59504;SDS011;45321;53.200;5.814;2022-08-19T13:24:44;11.25;;;8.57;;
59504;SDS011;45321;53.200;5.814;2022-08-19T13:27:10;11.38;;;7.95;;
59504;SDS011;45321;53.200;5.814;2022-08-19T13:29:35;12.13;;;7.93;;
59504;SDS011;45321;53.200;5.814;2022-08-19T13:32:20;9.82;;;8.27;;
59504;SDS011;45321;53.200;5.814;2022-08-19T13:35:04;9.65;;;8.43;;
59504;SDS011;45321;53.200;5.814;2022-08-19T13:37:30;9.75;;;8.35;;
59504;SDS011;45321;53.200;5.814;2022-08-19T13:40:14;8.70;;;7.40;;
59504;SDS011;45321;53.200;5.814;2022-08-19T13:42:43;9.55;;;7.38;;
59504;SDS011;45321;53.200;5.814;2022-08-19T13:45:12;9.43;;;6.93;;
59504;SDS011;45321;53.200;5.814;2022-08-19T13:47:40;10.57;;;7.07;;
59504;SDS011;45321;53.200;5.814;2022-08-19T13:50:13;9.10;;;6.10;;
59504;SDS011;45321;53.200;5.814;2022-08-19T13:52:41;6.88;;;5.60;;
59504;SDS011;45321;53.200;5.814;2022-08-19T13:55:08;6.55;;;5.07;;
59504;SDS011;45321;53.200;5.814;2022-08-19T13:57:35;9.07;;;6.38;;
59504;SDS011;45321;53.200;5.814;2022-08-19T14:00:05;8.52;;;5.50;;
59504;SDS011;45321;53.200;5.814;2022-08-19T14:02:35;8.80;;;5.57;;
59504;SDS011;45321;53.200;5.814;2022-08-19T14:05:06;8.05;;;6.40;;
59504;SDS011;45321;53.200;5.814;2022-08-19T14:07:34;10.15;;;5.80;;
59504;SDS011;45321;53.200;5.814;2022-08-19T14:10:01;6.53;;;4.72;;
59504;SDS011;45321;53.200;5.814;2022-08-19T14:12:27;11.50;;;6.32;;
59504;SDS011;45321;53.200;5.814;2022-08-19T14:14:56;8.02;;;5.53;;
59504;SDS011;45321;53.200;5.814;2022-08-19T14:17:21;6.15;;;4.70;;
59504;SDS011;45321;53.200;5.814;2022-08-19T14:19:47;9.55;;;4.63;;
59504;SDS011;45321;53.200;5.814;2022-08-19T14:22:13;7.32;;;5.00;;
59504;SDS011;45321;53.200;5.814;2022-08-19T14:24:39;6.13;;;5.05;;
59504;SDS011;45321;53.200;5.814;2022-08-19T14:27:05;8.38;;;4.43;;
59504;SDS011;45321;53.200;5.814;2022-08-19T14:29:32;7.30;;;3.75;;
59504;SDS011;45321;53.200;5.814;2022-08-19T14:31:59;4.28;;;2.65;;
59504;SDS011;45321;53.200;5.814;2022-08-19T14:34:25;7.13;;;3.67;;
59504;SDS011;45321;53.200;5.814;2022-08-19T14:36:51;8.15;;;4.30;;
59504;SDS011;45321;53.200;5.814;2022-08-19T14:39:18;4.22;;;2.72;;
59504;SDS011;45321;53.200;5.814;2022-08-19T14:41:44;5.03;;;3.63;;
59504;SDS011;45321;53.200;5.814;2022-08-19T14:44:10;4.97;;;3.20;;
59504;SDS011;45321;53.200;5.814;2022-08-19T14:46:37;4.40;;;2.65;;
59504;SDS011;45321;53.200;5.814;2022-08-19T14:49:04;5.65;;;3.40;;
59504;SDS011;45321;53.200;5.814;2022-08-19T14:51:30;4.72;;;3.03;;
59504;SDS011;45321;53.200;5.814;2022-08-19T14:53:56;5.18;;;2.25;;
59504;SDS011;45321;53.200;5.814;2022-08-19T14:56:23;4.22;;;2.50;;